Time;durP1;ratioP1;P1;durP2;ratioP2;P2;SDS_P1;SDS_P2;PMS_P1;PMS_P2;Temp;Humidity;BMP_temperature;BMP_pressure;BME280_temperature;BME280_humidity;BME280_pressure;Samples;Min_cycle;Max_cycle;Signal;HPM_P1;HPM_P2
2023/09/08 00:01:49;;;;;;;10.20;9.20;;;19.30;1.00;;;;;;5039532;28;20400;-88
2023/09/08 00:04:15;;;;;;;10.17;9.27;;;19.10;1.00;;;;;;5064343;28;20388;-88
2023/09/08 00:06:41;;;;;;;9.80;8.90;;;18.30;1.00;;;;;;5073545;28;20398;-90
2023/09/08 00:09:07;;;;;;;8.82;8.13;;;20.00;1.00;;;;;;5081596;28;20463;-88
2023/09/08 00:11:33;;;;;;;10.30;9.50;;;19.50;1.00;;;;;;5093972;28;20391;-88
2023/09/08 00:13:58;;;;;;;10.93;9.93;;;19.60;1.00;;;;;;5087841;28;20419;-88
2023/09/08 00:16:24;;;;;;;10.50;9.50;;;19.70;1.00;;;;;;5086760;28;20475;-90
2023/09/08 00:18:50;;;;;;;10.07;9.27;;;20.20;1.00;;;;;;5073523;28;20494;-89
2023/09/08 00:21:15;;;;;;;9.70;8.90;;;19.70;1.00;;;;;;5072365;28;20386;-89
2023/09/08 00:23:41;;;;;;;10.30;9.50;;;19.60;1.00;;;;;;5072572;28;20755;-89
2023/09/08 00:26:06;;;;;;;9.60;8.80;;;19.60;1.00;;;;;;5072535;28;20394;-90
2023/09/08 00:28:32;;;;;;;10.30;9.40;;;19.60;1.00;;;;;;5071154;28;20388;-89
2023/09/08 00:30:59;;;;;;;10.30;9.30;;;19.70;1.00;;;;;;5070611;28;20479;-89
2023/09/08 00:33:25;;;;;;;10.10;9.30;;;19.40;1.00;;;;;;5070618;28;20415;-89
2023/09/08 00:35:51;;;;;;;10.20;9.30;;;19.30;1.00;;;;;;5071002;28;20380;-89
2023/09/08 00:38:17;;;;;;;10.70;9.80;;;20.00;1.00;;;;;;5070721;28;20391;-89
2023/09/08 00:40:42;;;;;;;10.43;9.63;;;19.40;1.00;;;;;;5071059;28;20455;-89
2023/09/08 00:43:08;;;;;;;10.70;9.80;;;20.90;1.00;;;;;;5064545;28;20407;-89
2023/09/08 00:45:40;;;;;;;10.43;9.52;;;19.20;1.00;;;;;;5072601;28;20525;-90
2023/09/08 00:48:06;;;;;;;10.80;9.80;;;19.10;1.00;;;;;;5054444;28;20384;-91
2023/09/08 00:50:31;;;;;;;10.07;9.17;;;19.30;1.00;;;;;;5054323;28;20391;-90
2023/09/08 00:52:57;;;;;;;10.57;9.68;;;20.50;1.00;;;;;;5054362;28;20563;-89
2023/09/08 00:55:23;;;;;;;10.77;9.87;;;19.30;1.00;;;;;;5072110;28;20408;-89
2023/09/08 00:57:49;;;;;;;10.20;9.40;;;19.70;1.00;;;;;;5053611;28;20416;-88
2023/09/08 01:00:15;;;;;;;11.80;10.70;;;19.70;1.00;;;;;;5071894;28;20879;-89
2023/09/08 01:02:41;;;;;;;10.30;9.50;;;19.10;1.00;;;;;;5054139;28;20383;-89
2023/09/08 01:05:07;;;;;;;10.77;9.77;;;19.10;1.00;;;;;;5053935;28;20429;-90
2023/09/08 01:07:33;;;;;;;10.82;9.82;;;19.20;1.00;;;;;;5053853;28;20879;-89
2023/09/08 01:10:04;;;;;;;10.30;9.50;;;18.40;1.00;;;;;;5053270;28;20396;-90
2023/09/08 01:12:29;;;;;;;10.60;9.70;;;18.80;1.00;;;;;;5053805;28;20441;-89
2023/09/08 01:14:55;;;;;;;10.20;9.40;;;20.10;1.00;;;;;;5053925;28;20403;-89
2023/09/08 01:17:20;;;;;;;10.90;9.80;;;19.20;1.00;;;;;;5053740;28;20411;-89
2023/09/08 01:19:48;;;;;;;10.27;9.37;;;19.00;1.00;;;;;;5053439;28;20384;-89
2023/09/08 01:22:40;;;;;;;10.90;10.00;;;19.10;1.00;;;;;;5053964;28;20403;-90
2023/09/08 01:25:11;;;;;;;11.30;10.30;;;19.10;1.00;;;;;;5016686;28;20387;-88
2023/09/08 01:27:39;;;;;;;11.32;10.32;;;19.20;1.00;;;;;;5053367;28;20394;-89
2023/09/08 01:30:06;;;;;;;11.50;10.50;;;19.10;1.00;;;;;;5066880;28;20451;-88
2023/09/08 01:32:33;;;;;;;10.10;9.10;;;19.10;1.00;;;;;;5075822;28;20398;-89
2023/09/08 01:34:59;;;;;;;10.20;9.20;;;19.30;1.00;;;;;;5075450;28;20400;-88
2023/09/08 01:37:25;;;;;;;11.20;10.20;;;18.20;1.00;;;;;;5075760;28;20387;-88
2023/09/08 01:39:51;;;;;;;10.95;9.95;;;19.10;1.00;;;;;;5059827;28;20380;-88
2023/09/08 01:42:16;;;;;;;10.40;9.60;;;19.00;1.00;;;;;;5053079;28;20372;-88
2023/09/08 01:44:42;;;;;;;10.67;9.80;;;19.10;1.00;;;;;;5079283;28;20437;-88
2023/09/08 01:47:07;;;;;;;10.80;9.77;;;19.00;1.00;;;;;;5063493;28;20399;-88
2023/09/08 01:49:33;;;;;;;10.80;10.00;;;19.10;1.00;;;;;;5076883;28;20395;-88
2023/09/08 01:51:58;;;;;;;10.52;9.52;;;19.20;1.00;;;;;;5079069;28;20387;-87
2023/09/08 01:54:24;;;;;;;11.60;10.70;;;19.20;1.00;;;;;;5066277;28;20416;-89
2023/09/08 01:56:51;;;;;;;11.25;10.25;;;19.00;1.00;;;;;;5067624;28;20469;-88
2023/09/08 02:01:51;;;;;;;10.85;9.95;;;19.20;1.00;;;;;;5296259;22;20448;-88
2023/09/08 02:04:17;;;;;;;11.60;10.40;;;19.60;1.00;;;;;;5001570;28;20402;-88
2023/09/08 02:06:42;;;;;;;11.10;10.20;;;19.20;1.00;;;;;;5006858;28;20474;-88
2023/09/08 02:09:10;;;;;;;10.10;9.30;;;18.30;1.00;;;;;;5016354;28;20394;-90
2023/09/08 02:11:35;;;;;;;10.52;9.52;;;19.00;1.00;;;;;;4974335;28;20396;-88
2023/09/08 02:14:01;;;;;;;11.07;10.07;;;18.90;1.00;;;;;;4974574;28;20442;-88
2023/09/08 02:16:26;;;;;;;11.10;10.20;;;18.30;1.00;;;;;;4972875;28;20998;-89
2023/09/08 02:18:52;;;;;;;10.60;9.50;;;19.00;1.00;;;;;;4965519;28;20402;-89
2023/09/08 02:21:17;;;;;;;10.48;9.65;;;20.20;1.00;;;;;;4995039;28;20388;-89
2023/09/08 02:23:43;;;;;;;10.73;9.63;;;18.90;1.00;;;;;;5013638;28;20913;-88
2023/09/08 02:26:08;;;;;;;10.25;9.35;;;18.80;1.00;;;;;;4998079;28;20995;-89
2023/09/08 02:28:34;;;;;;;10.77;9.87;;;18.70;1.00;;;;;;5015707;28;20396;-89
2023/09/08 02:30:59;;;;;;;10.70;9.80;;;18.50;1.00;;;;;;4997969;28;20392;-89
2023/09/08 02:33:25;;;;;;;10.33;9.53;;;18.80;1.00;;;;;;5019942;28;20452;-89
2023/09/08 02:35:51;;;;;;;10.83;9.83;;;18.60;1.00;;;;;;4999164;28;20425;-89
2023/09/08 02:38:17;;;;;;;11.73;10.73;;;17.20;1.00;;;;;;5009809;28;20386;-87
2023/09/08 02:40:43;;;;;;;9.50;8.80;;;18.70;1.00;;;;;;5001756;28;20434;-87
2023/09/08 02:43:08;;;;;;;10.98;10.07;;;19.10;1.00;;;;;;5016223;28;20394;-87
2023/09/08 02:45:34;;;;;;;10.50;9.60;;;17.70;1.00;;;;;;5018350;28;20437;-87
2023/09/08 02:48:00;;;;;;;11.60;10.50;;;18.70;1.00;;;;;;5018349;28;20397;-86
2023/09/08 02:50:25;;;;;;;11.60;10.50;;;18.80;1.00;;;;;;5016246;28;20437;-90
2023/09/08 02:52:51;;;;;;;10.47;9.57;;;18.70;1.00;;;;;;4995887;28;20395;-89
2023/09/08 02:55:16;;;;;;;10.70;9.70;;;18.30;1.00;;;;;;5012058;28;20896;-88
2023/09/08 02:57:42;;;;;;;11.20;10.20;;;18.40;1.00;;;;;;5016570;28;20395;-89
2023/09/08 03:00:08;;;;;;;11.40;10.40;;;20.40;1.00;;;;;;5015147;28;20378;-88
2023/09/08 03:02:33;;;;;;;11.70;10.60;;;18.30;1.00;;;;;;5005353;28;20398;-89
2023/09/08 03:05:00;;;;;;;11.43;10.43;;;18.30;1.00;;;;;;4994015;28;20406;-89
2023/09/08 03:07:26;;;;;;;11.20;10.30;;;18.30;1.00;;;;;;4993216;28;20418;-89
2023/09/08 03:09:52;;;;;;;12.03;10.93;;;18.30;1.00;;;;;;4993097;28;20403;-88
2023/09/08 03:12:17;;;;;;;11.70;10.80;;;18.20;1.00;;;;;;4993508;28;20905;-89
2023/09/08 03:14:44;;;;;;;11.40;10.50;;;19.30;1.00;;;;;;4992836;28;20406;-90
2023/09/08 03:17:10;;;;;;;12.05;10.95;;;18.30;1.00;;;;;;4993226;28;20406;-89
2023/09/08 03:19:36;;;;;;;11.23;10.23;;;18.20;1.00;;;;;;4994414;28;20391;-89
2023/09/08 03:22:01;;;;;;;12.40;11.30;;;18.20;1.00;;;;;;4996864;28;20383;-89
2023/09/08 03:24:27;;;;;;;11.88;10.98;;;18.20;1.00;;;;;;5005528;28;20392;-89
2023/09/08 03:26:52;;;;;;;11.40;10.50;;;18.20;1.00;;;;;;4996385;28;20463;-89
2023/09/08 03:29:18;;;;;;;11.60;10.60;;;18.40;1.00;;;;;;5012421;28;20839;-89
2023/09/08 03:31:43;;;;;;;12.40;11.30;;;19.90;1.00;;;;;;5012404;28;20393;-89
2023/09/08 03:34:09;;;;;;;12.30;11.20;;;17.10;1.00;;;;;;4995177;28;20415;-89
2023/09/08 03:36:35;;;;;;;11.83;10.83;;;19.30;1.00;;;;;;5013397;28;20385;-89
2023/09/08 03:39:02;;;;;;;11.25;10.25;;;18.10;1.00;;;;;;4996038;28;20396;-89
2023/09/08 03:41:27;;;;;;;12.23;11.23;;;18.90;1.00;;;;;;4995946;28;20910;-88
2023/09/08 03:43:53;;;;;;;12.77;11.67;;;16.80;1.00;;;;;;4995908;28;20388;-89
2023/09/08 03:46:19;;;;;;;11.90;10.90;;;18.10;1.00;;;;;;5014329;28;20415;-89
2023/09/08 03:48:44;;;;;;;12.30;11.20;;;17.90;1.00;;;;;;4996239;28;20744;-89
2023/09/08 03:51:10;;;;;;;11.60;10.70;;;17.40;1.00;;;;;;5013281;28;20491;-88
2023/09/08 03:53:35;;;;;;;11.77;10.68;;;17.60;1.00;;;;;;5012165;28;20408;-89
2023/09/08 03:56:01;;;;;;;11.20;10.30;;;18.30;1.00;;;;;;5017370;28;20393;-88
2023/09/08 03:58:26;;;;;;;11.63;10.73;;;18.30;1.00;;;;;;5020827;28;20787;-89
2023/09/08 04:00:52;;;;;;;11.00;10.10;;;19.10;1.00;;;;;;4995632;28;20385;-89
2023/09/08 04:03:17;;;;;;;12.60;11.20;;;17.20;1.00;;;;;;4995757;28;20397;-89
2023/09/08 04:05:43;;;;;;;12.05;10.95;;;18.80;1.00;;;;;;4995809;28;20476;-89
2023/09/08 04:08:08;;;;;;;11.73;10.73;;;18.10;1.00;;;;;;4995770;28;20476;-89
2023/09/08 04:10:34;;;;;;;12.43;11.32;;;17.80;1.00;;;;;;5008345;28;20394;-88
2023/09/08 04:12:59;;;;;;;12.30;11.20;;;18.00;1.00;;;;;;4992346;28;20387;-89
2023/09/08 04:15:25;;;;;;;12.05;10.90;;;18.00;1.00;;;;;;4992535;28;20399;-89
2023/09/08 04:17:51;;;;;;;12.67;11.63;;;18.00;1.00;;;;;;4976384;28;20390;-88
2023/09/08 04:20:16;;;;;;;12.00;10.90;;;19.30;1.00;;;;;;4993450;28;20466;-89
2023/09/08 04:22:42;;;;;;;11.32;10.43;;;18.00;1.00;;;;;;4994723;28;20394;-89
2023/09/08 04:25:08;;;;;;;12.53;11.47;;;18.10;1.00;;;;;;4993600;28;20405;-88
2023/09/08 04:27:35;;;;;;;12.82;11.73;;;18.10;1.00;;;;;;4976388;28;20906;-89
2023/09/08 04:30:00;;;;;;;11.95;11.00;;;18.00;1.00;;;;;;4992699;28;20765;-89
2023/09/08 04:32:26;;;;;;;12.02;10.93;;;19.20;1.00;;;;;;4994792;28;20389;-89
2023/09/08 04:34:51;;;;;;;12.23;11.13;;;17.10;1.00;;;;;;4994219;28;20790;-89
2023/09/08 04:37:17;;;;;;;11.50;10.50;;;18.50;1.00;;;;;;4993025;28;20770;-90
2023/09/08 04:39:43;;;;;;;11.20;10.20;;;18.00;1.00;;;;;;4992489;28;20395;-89
2023/09/08 04:42:09;;;;;;;11.88;10.85;;;20.40;1.00;;;;;;4992170;28;20409;-88
2023/09/08 04:44:34;;;;;;;11.98;10.88;;;17.00;1.00;;;;;;5006297;28;20379;-88
2023/09/08 04:47:00;;;;;;;12.47;11.37;;;17.80;1.00;;;;;;5007178;28;20419;-88
2023/09/08 04:49:26;;;;;;;11.30;10.40;;;17.90;1.00;;;;;;4994050;28;20397;-89
2023/09/08 04:51:51;;;;;;;11.93;10.82;;;17.30;1.00;;;;;;4992551;28;20805;-88
2023/09/08 04:54:17;;;;;;;12.43;11.43;;;18.40;1.00;;;;;;4992222;28;20802;-88
2023/09/08 04:56:42;;;;;;;11.98;10.98;;;17.90;1.00;;;;;;4991775;28;20829;-89
2023/09/08 04:59:08;;;;;;;12.70;11.40;;;18.10;1.00;;;;;;4993928;28;20934;-89
2023/09/08 05:01:36;;;;;;;11.47;10.57;;;18.30;1.00;;;;;;5001732;28;20749;-90
2023/09/08 05:04:02;;;;;;;11.95;10.95;;;18.00;1.00;;;;;;4991700;28;20402;-89
2023/09/08 05:06:27;;;;;;;11.73;10.63;;;17.90;1.00;;;;;;4995157;28;20400;-89
2023/09/08 05:08:53;;;;;;;12.68;11.57;;;17.50;1.00;;;;;;5011525;28;20388;-89
2023/09/08 05:11:19;;;;;;;12.70;11.60;;;16.40;1.00;;;;;;4990729;28;20405;-89
2023/09/08 05:13:46;;;;;;;12.70;11.40;;;16.70;1.00;;;;;;4976061;28;20401;-90
2023/09/08 05:16:11;;;;;;;12.73;11.45;;;17.70;1.00;;;;;;4991583;28;20431;-90
2023/09/08 05:18:39;;;;;;;12.13;11.23;;;18.80;1.00;;;;;;4991571;28;20421;-90
2023/09/08 05:21:05;;;;;;;12.00;11.10;;;17.80;1.00;;;;;;4991347;28;20458;-89
2023/09/08 05:23:31;;;;;;;12.60;11.40;;;17.80;1.00;;;;;;4996341;28;20414;-90
2023/09/08 05:25:56;;;;;;;12.33;11.23;;;18.90;1.00;;;;;;4993258;28;20398;-88
2023/09/08 05:28:22;;;;;;;12.27;11.25;;;16.90;1.00;;;;;;4992305;28;20809;-89
2023/09/08 05:30:50;;;;;;;11.95;10.85;;;17.90;1.00;;;;;;4992114;28;20393;-89
2023/09/08 05:33:15;;;;;;;11.98;10.98;;;18.00;1.00;;;;;;4992944;28;20394;-89
2023/09/08 05:35:42;;;;;;;11.50;10.40;;;17.80;1.00;;;;;;5007624;28;20390;-89
2023/09/08 05:38:07;;;;;;;12.65;11.65;;;18.60;1.00;;;;;;5013837;28;20383;-89
2023/09/08 05:40:34;;;;;;;12.48;11.38;;;18.30;1.00;;;;;;5013301;28;20487;-89
2023/09/08 05:43:00;;;;;;;12.48;11.35;;;18.00;1.00;;;;;;5015606;28;20474;-89
2023/09/08 05:45:25;;;;;;;12.18;11.18;;;18.10;1.00;;;;;;5014888;28;20378;-89
2023/09/08 05:47:52;;;;;;;12.30;11.30;;;18.20;1.00;;;;;;5015389;28;20426;-89
2023/09/08 05:50:17;;;;;;;12.65;11.60;;;18.20;1.00;;;;;;5014884;28;20391;-88
2023/09/08 05:52:43;;;;;;;11.90;10.70;;;18.30;1.00;;;;;;4999832;28;20400;-88
2023/09/08 05:55:09;;;;;;;12.23;11.13;;;18.40;1.00;;;;;;5016302;28;20425;-88
2023/09/08 05:57:34;;;;;;;10.80;9.83;;;19.00;1.00;;;;;;4999636;28;20399;-89
2023/09/08 06:00:01;;;;;;;12.40;11.30;;;18.30;1.00;;;;;;4999714;28;20393;-88
2023/09/08 06:02:26;;;;;;;12.38;11.27;;;18.40;1.00;;;;;;5000131;28;20402;-88
2023/09/08 06:04:52;;;;;;;11.80;10.90;;;20.70;1.00;;;;;;4998821;28;20395;-88
2023/09/08 06:07:17;;;;;;;11.10;10.10;;;20.30;1.00;;;;;;4992511;28;20491;-88
2023/09/08 06:09:43;;;;;;;12.37;11.37;;;19.00;1.00;;;;;;5017104;28;20404;-88
2023/09/08 06:12:08;;;;;;;11.77;10.70;;;19.00;1.00;;;;;;5004347;28;20407;-88
2023/09/08 06:14:34;;;;;;;11.50;10.50;;;20.30;1.00;;;;;;5020939;28;20959;-89
2023/09/08 06:16:59;;;;;;;11.95;10.60;;;20.60;1.00;;;;;;5021888;28;20887;-88
2023/09/08 06:19:25;;;;;;;11.87;10.90;;;18.80;1.00;;;;;;5003576;28;20383;-89
2023/09/08 06:21:50;;;;;;;10.82;9.93;;;18.90;1.00;;;;;;5002000;28;20397;-89
2023/09/08 06:24:16;;;;;;;11.80;10.70;;;18.90;1.00;;;;;;5020283;28;20389;-89
2023/09/08 06:26:42;;;;;;;12.15;10.95;;;19.00;1.00;;;;;;5017267;28;20401;-89
2023/09/08 06:29:08;;;;;;;11.43;10.32;;;17.40;1.00;;;;;;5023935;28;20428;-89
2023/09/08 06:31:33;;;;;;;10.85;9.95;;;19.50;1.00;;;;;;5019018;28;20400;-89
2023/09/08 06:33:59;;;;;;;11.53;10.53;;;17.70;1.00;;;;;;4997818;28;20423;-89
2023/09/08 06:36:24;;;;;;;10.63;9.82;;;19.10;1.00;;;;;;5014325;28;20837;-88
2023/09/08 06:38:50;;;;;;;10.80;9.80;;;20.00;1.00;;;;;;5015600;28;20421;-89
2023/09/08 06:41:15;;;;;;;11.10;10.20;;;19.80;1.00;;;;;;4997353;28;20404;-89
2023/09/08 06:43:42;;;;;;;11.30;10.30;;;17.80;1.00;;;;;;4997649;28;20385;-89
2023/09/08 06:46:08;;;;;;;11.02;10.02;;;19.40;1.00;;;;;;4998359;28;20959;-88
2023/09/08 06:48:33;;;;;;;10.70;9.80;;;20.00;1.00;;;;;;4998723;28;20427;-89
2023/09/08 06:50:59;;;;;;;11.70;10.70;;;19.50;1.00;;;;;;4999004;28;20401;-90
2023/09/08 06:53:25;;;;;;;10.10;9.20;;;20.30;1.00;;;;;;5000507;28;20400;-90
2023/09/08 06:55:50;;;;;;;10.25;9.35;;;19.70;1.00;;;;;;4998378;28;20952;-90
2023/09/08 06:58:16;;;;;;;10.87;9.97;;;20.30;1.00;;;;;;5016274;28;20412;-89
2023/09/08 07:00:42;;;;;;;11.13;10.02;;;20.90;1.00;;;;;;5002747;28;20428;-89
2023/09/08 07:03:08;;;;;;;11.00;9.90;;;18.30;1.00;;;;;;5017699;28;20393;-90
2023/09/08 07:05:38;;;;;;;10.43;9.63;;;19.20;1.00;;;;;;5000870;28;20428;-89
2023/09/08 07:08:06;;;;;;;10.70;9.80;;;20.00;1.00;;;;;;4998307;28;20408;-89
2023/09/08 07:10:31;;;;;;;10.50;9.60;;;20.10;1.00;;;;;;5001575;28;20874;-90
2023/09/08 07:12:57;;;;;;;10.60;9.50;;;19.40;1.00;;;;;;4995364;28;20406;-90
2023/09/08 07:15:22;;;;;;;10.77;9.88;;;20.30;1.00;;;;;;4994461;28;20461;-89
2023/09/08 07:17:48;;;;;;;10.70;9.80;;;20.30;1.00;;;;;;4993318;28;20390;-90
2023/09/08 07:20:14;;;;;;;10.85;9.85;;;21.20;1.00;;;;;;4981189;28;20390;-89
2023/09/08 07:22:49;;;;;;;9.53;8.73;;;20.50;1.00;;;;;;4995849;28;20469;-88
2023/09/08 07:25:15;;;;;;;10.52;9.52;;;20.50;1.00;;;;;;4997862;28;20396;-90
2023/09/08 07:27:40;;;;;;;9.93;9.02;;;20.70;1.00;;;;;;5008373;28;20762;-87
2023/09/08 07:30:07;;;;;;;10.20;9.30;;;21.60;1.00;;;;;;4995525;28;20406;-87
2023/09/08 07:35:40;;;;;;;11.00;10.00;;;20.90;1.00;;;;;;4998490;28;20553;-87
2023/09/08 07:44:55;;;;;;;8.90;8.20;;;21.70;1.00;;;;;;4896366;29;20454;-89
2023/09/08 07:47:20;;;;;;;9.63;8.82;;;21.40;1.00;;;;;;4934493;29;20502;-85
2023/09/08 07:49:48;;;;;;;9.38;8.57;;;22.90;1.00;;;;;;4921908;29;20427;-88
2023/09/08 07:52:13;;;;;;;8.88;8.18;;;21.60;1.00;;;;;;4966283;28;20890;-89
2023/09/08 07:54:41;;;;;;;9.20;8.40;;;21.80;1.00;;;;;;5015172;28;20416;-89
2023/09/08 07:57:07;;;;;;;9.68;8.77;;;21.80;1.00;;;;;;4997109;28;20397;-88
2023/09/08 08:04:32;;;;;;;9.07;8.27;;;21.90;1.00;;;;;;4935840;29;20466;-89
2023/09/08 08:07:44;;;;;;;;;;;;;;;;;;;;;
2023/09/08 08:10:42;;;;;;;10.68;8.98;;;24.40;1.00;;;;;;4941374;28;20471;-87
2023/09/08 08:13:52;;;;;;;9.57;8.57;;;23.10;1.00;;;;;;4948719;28;20463;-87
2023/09/08 08:16:35;;;;;;;10.63;9.77;;;22.20;1.00;;;;;;4902429;29;20441;-88
2023/09/08 08:19:55;;;;;;;10.13;9.15;;;22.80;1.00;;;;;;4934197;29;20403;-89
2023/09/08 08:22:43;;;;;;;10.33;9.33;;;23.70;1.00;;;;;;4939166;29;20403;-89
2023/09/08 08:29:15;;;;;;;9.73;8.82;;;23.30;1.00;;;;;;5013456;28;20419;-89
2023/09/08 08:36:03;;;;;;;10.52;9.52;;;23.40;1.00;;;;;;5022935;28;20404;-87
2023/09/08 08:39:12;;;;;;;9.90;9.00;;;24.70;1.00;;;;;;5012708;28;20411;-88
2023/09/08 08:42:01;;;;;;;10.30;9.40;;;24.80;1.00;;;;;;5013925;28;20388;-88
2023/09/08 08:44:52;;;;;;;10.05;9.15;;;24.30;1.00;;;;;;4998889;28;20397;-88
2023/09/08 08:47:42;;;;;;;10.52;9.63;;;21.90;1.00;;;;;;4994105;28;20453;-87
2023/09/08 08:50:36;;;;;;;14.52;10.13;;;25.10;1.00;;;;;;4955945;28;20400;-88
2023/09/08 08:57:32;;;;;;;10.65;9.70;;;24.40;1.00;;;;;;4945786;28;20402;-88
2023/09/08 09:03:38;;;;;;;9.38;8.48;;;24.30;1.00;;;;;;4916766;29;20405;-87
2023/09/08 09:06:30;;;;;;;;;;;;;;;;;;;;;
2023/09/08 09:12:46;;;;;;;8.55;7.90;;;24.70;1.00;;;;;;4990614;28;20430;-89
2023/09/08 09:15:46;;;;;;;8.15;7.50;;;24.90;1.00;;;;;;4999484;28;20497;-89
2023/09/08 09:18:40;;;;;;;9.00;8.10;;;25.40;1.00;;;;;;4978174;28;20414;-90
2023/09/08 09:25:47;;;;;;;8.68;7.88;;;25.40;1.00;;;;;;4956376;28;20394;-88
2023/09/08 09:39:17;;;;;;;;;;;;;;;;;;;;;
2023/09/08 09:41:52;;;;;;;8.75;7.85;;;25.60;1.00;;;;;;4996950;28;20445;-88
2023/09/08 09:44:51;;;;;;;8.43;7.72;;;25.50;1.00;;;;;;4995278;28;20418;-88
2023/09/08 09:55:10;;;;;;;8.30;7.50;;;25.80;1.00;;;;;;4881660;29;20409;-90
2023/09/08 09:58:22;;;;;;;8.43;7.65;;;24.40;1.00;;;;;;4914830;29;20401;-89
2023/09/08 10:00:49;;;;;;;8.40;7.70;;;26.70;1.00;;;;;;4902104;29;20412;-88
2023/09/08 10:03:20;;;;;;;8.90;8.00;;;25.80;1.00;;;;;;4912683;29;20409;-88
2023/09/08 10:05:49;;;;;;;8.95;8.05;;;25.70;1.00;;;;;;4947737;28;20444;-88
2023/09/08 10:08:14;;;;;;;9.20;7.90;;;26.10;1.00;;;;;;5013911;28;20414;-86
2023/09/08 10:10:42;;;;;;;8.52;7.80;;;26.50;1.00;;;;;;4990571;28;20410;-90
2023/09/08 10:13:10;;;;;;;8.15;7.55;;;26.30;1.00;;;;;;4990782;28;20429;-87
2023/09/08 10:15:37;;;;;;;8.60;7.80;;;26.30;1.00;;;;;;4990957;28;20437;-88
2023/09/08 10:18:07;;;;;;;7.93;7.22;;;26.40;1.00;;;;;;4991938;28;20383;-86
2023/09/08 10:20:36;;;;;;;7.70;6.90;;;26.50;1.00;;;;;;4992403;28;20460;-88
2023/09/08 10:23:29;;;;;;;8.35;7.65;;;26.40;1.00;;;;;;4991098;28;20406;-88
2023/09/08 10:25:59;;;;;;;8.75;7.95;;;26.50;1.00;;;;;;4978480;28;20398;-88
2023/09/08 10:31:59;;;;;;;8.25;7.45;;;26.50;1.00;;;;;;4987778;28;20450;-87
2023/09/08 10:34:40;;;;;;;7.35;6.60;;;26.60;1.00;;;;;;4997053;28;20414;-88
2023/09/08 10:37:29;;;;;;;7.93;7.20;;;26.50;1.00;;;;;;4994078;28;20913;-87
2023/09/08 10:40:29;;;;;;;7.37;6.77;;;25.20;1.00;;;;;;4991979;28;20382;-89
2023/09/08 10:43:09;;;;;;;7.28;6.60;;;27.20;1.00;;;;;;4945099;28;20389;-89
2023/09/08 10:45:35;;;;;;;7.57;6.97;;;26.60;1.00;;;;;;4994803;28;20421;-88
2023/09/08 10:55:36;;;;;;;7.30;6.70;;;27.50;1.00;;;;;;4954157;28;20414;-88
2023/09/08 10:58:04;;;;;;;7.20;6.60;;;27.40;1.00;;;;;;4975272;28;20473;-87
2023/09/08 11:00:46;;;;;;;7.72;6.93;;;27.50;1.00;;;;;;4994457;28;20889;-88
2023/09/08 11:03:13;;;;;;;7.38;6.78;;;27.50;1.00;;;;;;4994395;28;20405;-88
2023/09/08 11:06:04;;;;;;;;;;;;;;;;;;;;;
2023/09/08 11:09:14;;;;;;;6.60;6.10;;;26.10;1.00;;;;;;4994980;28;20390;-88
2023/09/08 11:11:43;;;;;;;6.22;5.72;;;27.90;1.00;;;;;;4975030;28;20459;-89
2023/09/08 11:14:49;;;;;;;7.32;6.40;;;28.10;1.00;;;;;;4958102;28;20412;-88
2023/09/08 11:17:17;;;;;;;6.43;5.80;;;28.20;1.00;;;;;;4934789;29;20403;-89
2023/09/08 11:19:49;;;;;;;6.15;5.60;;;27.90;1.00;;;;;;4934457;29;20487;-88
2023/09/08 11:22:16;;;;;;;6.72;6.05;;;28.40;1.00;;;;;;4962555;28;20453;-88
2023/09/08 11:24:42;;;;;;;10.68;6.00;;;28.70;1.00;;;;;;4974286;28;20399;-88
2023/09/08 11:27:08;;;;;;;7.28;6.57;;;29.00;1.00;;;;;;4975371;28;20970;-89
2023/09/08 11:29:44;;;;;;;7.22;6.53;;;29.10;1.00;;;;;;4979092;28;20914;-89
2023/09/08 11:32:16;;;;;;;7.70;6.00;;;29.90;1.00;;;;;;4998716;28;20402;-89
2023/09/08 11:34:42;;;;;;;5.93;5.43;;;29.90;1.00;;;;;;4981258;28;20518;-87
2023/09/08 11:37:13;;;;;;;5.90;5.40;;;30.60;1.00;;;;;;4974187;28;20484;-88
2023/09/08 11:40:03;;;;;;;5.90;5.40;;;31.50;1.00;;;;;;4974614;28;20400;-91
2023/09/08 11:42:29;;;;;;;5.20;4.80;;;30.90;1.00;;;;;;4975599;28;20434;-89
2023/09/08 11:45:04;;;;;;;4.55;4.25;;;31.80;1.00;;;;;;4975055;28;20419;-90
2023/09/08 11:47:35;;;;;;;5.17;4.77;;;31.90;1.00;;;;;;4974214;28;20489;-90
2023/09/08 11:50:02;;;;;;;5.80;5.07;;;30.80;1.00;;;;;;4974703;28;20451;-90
2023/09/08 11:52:34;;;;;;;5.32;4.93;;;30.50;1.00;;;;;;4957793;28;20403;-90
2023/09/08 11:55:00;;;;;;;5.43;4.93;;;31.30;1.00;;;;;;4956330;28;20404;-90
2023/09/08 11:57:35;;;;;;;5.40;4.90;;;31.60;1.00;;;;;;4973274;28;20400;-89
2023/09/08 12:00:30;;;;;;;5.28;4.88;;;32.40;1.00;;;;;;4973656;28;20439;-90
2023/09/08 12:03:24;;;;;;;5.20;4.70;;;32.10;1.00;;;;;;4965325;28;20927;-90
2023/09/08 12:05:59;;;;;;;5.20;4.80;;;30.50;1.00;;;;;;4956859;28;20423;-90
2023/09/08 12:08:37;;;;;;;5.88;4.90;;;30.90;1.00;;;;;;4973434;28;20400;-90
2023/09/08 12:11:03;;;;;;;5.07;4.63;;;32.30;1.00;;;;;;4974189;28;20395;-89
2023/09/08 12:13:28;;;;;;;4.97;4.50;;;31.70;1.00;;;;;;4992995;28;20390;-88
2023/09/08 12:15:54;;;;;;;5.25;4.78;;;31.60;1.00;;;;;;4993558;28;20405;-88
2023/09/08 12:18:40;;;;;;;4.55;4.20;;;31.30;1.00;;;;;;4992101;28;20390;-89
2023/09/08 12:21:06;;;;;;;4.45;4.15;;;31.30;1.00;;;;;;4992307;28;20386;-88
2023/09/08 12:24:14;;;;;;;;;;;;;;;;;;;;;
2023/09/08 12:40:37;;;;;;;4.68;4.10;;;30.70;1.00;;;;;;4244326;23;20433;-85
2023/09/08 12:50:41;;;;;;;4.30;4.00;;;31.60;1.00;;;;;;4893205;29;20550;-84
2023/09/08 12:53:06;;;;;;;4.33;3.93;;;30.50;1.00;;;;;;4944249;28;20489;-84
2023/09/08 12:55:32;;;;;;;5.85;4.10;;;30.40;1.00;;;;;;5014649;28;20395;-84
2023/09/08 12:58:00;;;;;;;4.10;3.80;;;31.50;1.00;;;;;;5033748;28;20390;-84
2023/09/08 13:00:27;;;;;;;5.22;4.72;;;29.10;1.00;;;;;;5033396;28;20393;-85
2023/09/08 13:02:53;;;;;;;4.57;4.18;;;30.90;1.00;;;;;;5014317;28;20406;-84
2023/09/08 13:05:18;;;;;;;4.90;4.40;;;30.50;1.00;;;;;;5013199;28;20774;-85
2023/09/08 13:07:44;;;;;;;4.40;4.10;;;30.80;1.00;;;;;;5018604;28;20447;-86
2023/09/08 13:10:09;;;;;;;4.97;4.57;;;30.50;1.00;;;;;;5044487;28;20410;-85
2023/09/08 13:12:35;;;;;;;4.55;4.15;;;30.10;1.00;;;;;;5036380;28;20777;-84
2023/09/08 13:15:00;;;;;;;4.20;3.90;;;30.60;1.00;;;;;;5032282;28;20445;-84
2023/09/08 13:17:26;;;;;;;4.53;4.13;;;30.50;1.00;;;;;;5033280;28;21091;-84
2023/09/08 13:33:46;;;;;;;;;;;;;;;;;;;;;
2023/09/08 13:49:09;;;;;;;5.13;4.50;;;30.80;1.00;;;;;;5663848;22;20438;-90
2023/09/08 14:40:55;;;;;;;3.92;3.63;;;30.40;1.00;;;;;;5297182;22;20450;-80
2023/09/08 14:43:21;;;;;;;3.90;3.60;;;30.80;1.00;;;;;;5043916;28;20395;-80
2023/09/08 14:45:46;;;;;;;6.00;3.90;;;30.60;1.00;;;;;;5040265;28;20451;-84
2023/09/08 14:48:12;;;;;;;4.70;3.70;;;30.90;1.00;;;;;;5042980;28;20406;-82
2023/09/08 14:50:37;;;;;;;6.90;3.40;;;31.30;1.00;;;;;;5049555;28;20383;-84
2023/09/08 14:53:03;;;;;;;5.45;3.50;;;31.50;1.00;;;;;;5038186;28;20809;-80
2023/09/08 14:55:29;;;;;;;3.80;3.50;;;31.20;1.00;;;;;;5036038;28;20426;-78
2023/09/08 14:57:55;;;;;;;4.70;3.60;;;30.90;1.00;;;;;;5037811;28;20379;-78
2023/09/08 15:00:21;;;;;;;4.60;3.55;;;30.80;1.00;;;;;;5041041;28;20422;-81
2023/09/08 15:02:46;;;;;;;4.10;3.70;;;31.00;1.00;;;;;;5044146;28;20395;-81
2023/09/08 15:05:12;;;;;;;4.27;3.60;;;31.30;1.00;;;;;;5038847;28;20498;-81
2023/09/08 15:07:37;;;;;;;6.43;3.70;;;31.00;1.00;;;;;;5037423;28;20387;-81
2023/09/08 15:10:04;;;;;;;5.95;4.00;;;31.10;1.00;;;;;;5033404;28;20387;-81
2023/09/08 15:12:30;;;;;;;4.20;3.80;;;31.30;1.00;;;;;;5047634;28;20395;-80
2023/09/08 15:14:55;;;;;;;3.60;3.30;;;31.40;1.00;;;;;;5049963;28;20832;-80
2023/09/08 15:17:21;;;;;;;3.77;3.47;;;31.10;1.00;;;;;;5038082;28;20398;-81
2023/09/08 15:19:47;;;;;;;4.95;4.20;;;31.00;1.00;;;;;;5018038;28;20482;-81
2023/09/08 15:22:12;;;;;;;4.00;3.60;;;31.00;1.00;;;;;;5022353;28;20420;-81
2023/09/08 15:24:38;;;;;;;6.95;3.80;;;31.40;1.00;;;;;;4999260;28;20396;-80
2023/09/08 15:27:04;;;;;;;5.78;3.85;;;31.40;1.00;;;;;;5016295;28;20393;-81
2023/09/08 15:29:29;;;;;;;7.20;4.13;;;31.80;1.00;;;;;;5016891;28;20394;-81
2023/09/08 15:31:55;;;;;;;4.00;3.70;;;31.60;1.00;;;;;;5044687;28;20841;-81
2023/09/08 15:34:20;;;;;;;8.25;3.80;;;31.70;1.00;;;;;;5033126;28;20451;-81
2023/09/08 15:36:48;;;;;;;4.47;3.97;;;31.10;1.00;;;;;;5017870;28;20393;-80
2023/09/08 15:39:14;;;;;;;4.55;3.90;;;30.90;1.00;;;;;;5017674;28;20961;-80
2023/09/08 15:41:39;;;;;;;5.70;3.60;;;31.10;1.00;;;;;;5035092;28;20458;-80
2023/09/08 15:44:05;;;;;;;5.53;3.88;;;30.60;1.00;;;;;;5035824;28;20406;-81
2023/09/08 15:46:30;;;;;;;5.17;4.30;;;30.90;1.00;;;;;;5018008;28;20389;-80
2023/09/08 15:48:56;;;;;;;5.00;4.50;;;30.70;1.00;;;;;;5026299;28;20465;-80
2023/09/08 15:51:21;;;;;;;5.40;4.10;;;30.70;1.00;;;;;;5039830;28;20378;-80
2023/09/08 15:53:47;;;;;;;5.43;4.40;;;30.60;1.00;;;;;;5023336;28;20389;-81